createdAt,value
2018-04-01T00:01:56.364Z,76.70
2018-04-01T00:04:24.159Z,77.12
2018-04-01T00:06:51.936Z,77.23
2018-04-01T00:09:29.732Z,77.40
2018-04-01T00:11:57.612Z,76.97
2018-04-01T00:14:25.433Z,77.29
2018-04-01T00:16:53.262Z,77.49
2018-04-01T00:19:21.039Z,77.21
2018-04-01T00:21:48.855Z,77.11
2018-04-01T00:24:16.628Z,77.30
2018-04-01T00:26:44.441Z,77.40
2018-04-01T00:29:12.228Z,77.55
2018-04-01T00:31:40.029Z,77.65
2018-04-01T00:34:07.840Z,77.77
2018-04-01T00:36:35.608Z,77.71
2018-04-01T00:39:03.488Z,77.38
2018-04-01T00:41:31.349Z,77.66
2018-04-01T00:43:59.133Z,78.11
2018-04-01T00:46:26.995Z,78.10
2018-04-01T00:48:57.739Z,78.03
2018-04-01T00:51:25.523Z,78.19
2018-04-01T00:53:53.344Z,78.00
2018-04-01T00:56:21.095Z,78.19
2018-04-01T00:58:48.907Z,78.46
2018-04-01T01:01:16.803Z,78.51
2018-04-01T01:03:44.601Z,78.01
2018-04-01T01:06:12.385Z,78.05
2018-04-01T01:08:40.202Z,77.81
2018-04-01T01:11:08.043Z,78.20
2018-04-01T01:13:35.832Z,78.44
2018-04-01T01:16:03.950Z,78.56
2018-04-01T01:18:31.731Z,78.17
2018-04-01T01:20:59.553Z,78.14
2018-04-01T01:23:27.356Z,78.62
2018-04-01T01:25:55.228Z,78.37
2018-04-01T01:28:23.003Z,78.12
2018-04-01T01:30:50.801Z,78.95
2018-04-01T01:33:18.577Z,78.52
2018-04-01T01:35:46.477Z,78.70
2018-04-01T01:38:14.272Z,78.69
2018-04-01T01:40:42.063Z,78.21
2018-04-01T01:43:09.885Z,77.97
2018-04-01T01:45:37.697Z,78.27
2018-04-01T01:48:05.512Z,78.37
2018-04-01T01:50:33.322Z,78.25
2018-04-01T01:53:01.138Z,77.97
2018-04-01T01:55:28.972Z,78.60
2018-04-01T01:57:56.787Z,77.97
2018-04-01T02:00:24.578Z,78.61
2018-04-01T02:02:52.516Z,78.71
2018-04-01T02:05:20.302Z,78.85
2018-04-01T02:07:48.099Z,79.13
2018-04-01T02:10:15.919Z,78.71
2018-04-01T02:12:43.718Z,78.57
2018-04-01T02:15:11.575Z,78.48
2018-04-01T02:17:39.377Z,79.00
2018-04-01T02:20:07.244Z,78.86
2018-04-01T02:22:35.036Z,78.69
2018-04-01T02:25:02.904Z,78.75
2018-04-01T02:27:30.756Z,79.04
2018-04-01T02:29:58.548Z,79.28
2018-04-01T02:32:26.327Z,79.30
2018-04-01T02:34:54.103Z,79.63
2018-04-01T02:37:21.877Z,79.74
2018-04-01T02:39:49.769Z,80.13
2018-04-01T02:42:17.555Z,80.19
2018-04-01T02:44:45.416Z,80.21
2018-04-01T02:47:13.282Z,80.36
2018-04-01T02:49:41.130Z,80.57
2018-04-01T02:52:08.896Z,80.67
2018-04-01T02:54:36.701Z,80.58
2018-04-01T02:57:04.495Z,80.79
2018-04-01T02:59:32.338Z,81.05
2018-04-01T03:02:00.126Z,81.12
2018-04-01T03:04:27.918Z,81.21
2018-04-01T03:06:55.717Z,81.22
2018-04-01T03:09:23.620Z,81.23
2018-04-01T03:11:51.493Z,81.28
2018-04-01T03:14:19.324Z,81.06
2018-04-01T03:16:47.172Z,81.51
2018-04-01T03:19:15.001Z,81.57
2018-04-01T03:21:42.784Z,81.42
2018-04-01T03:24:10.635Z,81.65
2018-04-01T03:26:38.425Z,81.73
2018-04-01T03:29:06.283Z,81.84
2018-04-01T03:31:34.073Z,81.74
2018-04-01T03:34:01.906Z,81.73
2018-04-01T03:36:29.870Z,81.55
2018-04-01T03:38:57.673Z,81.79
2018-04-01T03:41:25.498Z,81.94
2018-04-01T03:43:53.262Z,81.81
2018-04-01T03:46:21.153Z,81.83
2018-04-01T03:48:48.993Z,81.80
2018-04-01T03:51:16.795Z,81.84
2018-04-01T03:53:45.053Z,81.59
2018-04-01T03:56:14.159Z,81.74
2018-04-01T03:58:41.968Z,81.96
2018-04-01T04:01:09.761Z,81.99
2018-04-01T04:03:37.602Z,81.92
2018-04-01T04:06:05.430Z,81.69
2018-04-01T04:08:33.214Z,81.85
2018-04-01T04:11:01.079Z,81.64
2018-04-01T04:13:28.906Z,81.94
2018-04-01T04:15:56.749Z,82.06
2018-04-01T04:18:24.581Z,82.03
2018-04-01T04:20:52.444Z,82.05
2018-04-01T04:23:20.275Z,82.20
2018-04-01T04:25:48.055Z,82.23
2018-04-01T04:28:15.852Z,82.36
2018-04-01T04:30:43.634Z,82.01
2018-04-01T04:33:11.779Z,82.07
2018-04-01T04:35:39.660Z,82.08
2018-04-01T04:38:07.551Z,82.11
2018-04-01T04:40:35.325Z,81.66
2018-04-01T04:43:03.113Z,81.71
2018-04-01T04:45:30.924Z,82.01
2018-04-01T04:47:58.754Z,81.56
2018-04-01T04:50:26.558Z,81.45
2018-04-01T04:52:54.374Z,81.32
2018-04-01T04:55:22.205Z,80.84
2018-04-01T04:57:49.986Z,80.34
2018-04-01T05:00:17.771Z,79.96
2018-04-01T05:02:45.627Z,79.78
2018-04-01T05:05:13.764Z,80.21
2018-04-01T05:07:41.534Z,79.48
2018-04-01T05:10:09.370Z,79.62
2018-04-01T05:12:37.145Z,79.42
2018-04-01T05:15:04.942Z,79.73
2018-04-01T05:17:32.726Z,80.06
2018-04-01T05:20:00.551Z,79.84
2018-04-01T05:22:28.392Z,79.83
2018-04-01T05:24:56.157Z,79.86
2018-04-01T05:27:24.013Z,80.26
2018-04-01T05:29:51.801Z,80.02
2018-04-01T05:32:19.918Z,79.63
2018-04-01T05:34:47.745Z,79.62
2018-04-01T05:37:15.532Z,79.85
2018-04-01T05:39:43.407Z,80.00
2018-04-01T05:42:11.207Z,79.90
2018-04-01T05:44:39.008Z,79.92
2018-04-01T05:47:06.841Z,79.61
2018-04-01T05:49:34.623Z,79.83
2018-04-01T05:52:02.474Z,79.29
2018-04-01T05:54:30.336Z,79.38
2018-04-01T05:56:58.133Z,78.86
2018-04-01T05:59:25.937Z,78.87
2018-04-01T06:01:53.846Z,78.28
2018-04-01T06:04:21.754Z,77.87
2018-04-01T06:06:49.577Z,77.91
2018-04-01T06:09:17.387Z,77.54
2018-04-01T06:11:45.149Z,77.95
2018-04-01T06:14:12.949Z,77.53
2018-04-01T06:16:40.727Z,77.51
2018-04-01T06:19:08.577Z,77.19
2018-04-01T06:21:36.427Z,77.08
2018-04-01T06:24:04.262Z,77.28
2018-04-01T06:26:32.090Z,77.17
2018-04-01T06:28:59.885Z,77.37
2018-04-01T06:31:27.749Z,77.39
2018-04-01T06:33:55.576Z,77.26
2018-04-01T06:36:23.358Z,77.40
2018-04-01T06:38:51.549Z,77.36
2018-04-01T06:41:19.456Z,77.50
2018-04-01T06:43:47.232Z,78.14
2018-04-01T06:46:15.015Z,77.62
2018-04-01T06:48:42.786Z,77.43
2018-04-01T06:51:10.584Z,77.33
2018-04-01T06:53:38.720Z,77.58
2018-04-01T06:56:06.535Z,77.55
2018-04-01T06:58:34.305Z,77.29
2018-04-01T07:01:02.189Z,77.38
2018-04-01T07:03:29.986Z,77.40
2018-04-01T07:05:57.787Z,77.99
2018-04-01T07:08:25.579Z,77.96
2018-04-01T07:10:53.598Z,77.75
2018-04-01T07:13:21.393Z,78.20
2018-04-01T07:15:49.192Z,78.01
2018-04-01T07:18:17.046Z,77.46
2018-04-01T07:20:44.913Z,77.77
2018-04-01T07:23:12.702Z,77.96
2018-04-01T07:25:40.486Z,78.12
2018-04-01T07:28:08.243Z,78.48
2018-04-01T07:30:36.049Z,78.08
2018-04-01T07:33:03.984Z,78.16
2018-04-01T07:35:31.795Z,78.30
2018-04-01T07:37:59.565Z,77.89
2018-04-01T07:40:27.329Z,78.51
2018-04-01T07:42:55.109Z,78.37
2018-04-01T07:45:22.885Z,78.13
2018-04-01T07:47:50.828Z,78.36
2018-04-01T07:50:18.616Z,78.46
2018-04-01T07:52:46.436Z,78.48
2018-04-01T07:55:14.212Z,78.90
2018-04-01T07:57:42.020Z,78.22
2018-04-01T08:00:09.829Z,77.83
2018-04-01T08:02:37.741Z,77.84
2018-04-01T08:05:05.527Z,78.33
2018-04-01T08:07:33.338Z,79.01
2018-04-01T08:10:01.147Z,78.81
2018-04-01T08:12:28.929Z,78.55
2018-04-01T08:14:56.800Z,78.47
2018-04-01T08:17:24.588Z,78.37
2018-04-01T08:19:52.405Z,77.97
2018-04-01T08:22:20.185Z,78.00
2018-04-01T08:24:47.980Z,76.98
2018-04-01T08:27:15.819Z,76.71
2018-04-01T08:29:43.744Z,76.90
2018-04-01T08:32:11.591Z,76.25
2018-04-01T08:34:39.461Z,75.28
2018-04-01T08:37:07.237Z,75.06
2018-04-01T08:39:35.121Z,75.62
2018-04-01T08:42:02.991Z,75.04
2018-04-01T08:44:30.773Z,75.18
2018-04-01T08:46:58.560Z,74.76
2018-04-01T08:49:26.376Z,74.58
2018-04-01T08:51:54.672Z,74.34
2018-04-01T08:54:22.496Z,74.28
2018-04-01T08:56:50.275Z,74.51
2018-04-01T08:59:18.189Z,74.14
2018-04-01T09:01:45.924Z,74.36
2018-04-01T09:04:13.719Z,74.24
2018-04-01T09:06:41.596Z,74.49
2018-04-01T09:09:09.470Z,74.68
2018-04-01T09:11:37.303Z,74.51
2018-04-01T09:14:05.241Z,74.93
2018-04-01T09:16:33.056Z,73.67
2018-04-01T09:19:00.841Z,73.89
2018-04-01T09:21:28.629Z,74.52
2018-04-01T09:23:56.433Z,74.96
2018-04-01T09:26:24.464Z,75.41
2018-04-01T09:28:52.248Z,75.79
2018-04-01T09:31:20.052Z,75.84
2018-04-01T09:33:47.834Z,74.96
2018-04-01T09:36:15.638Z,75.14
2018-04-01T09:38:43.563Z,74.78
2018-04-01T09:41:11.504Z,74.96
2018-04-01T09:43:39.370Z,73.55
2018-04-01T09:46:07.155Z,74.24
2018-04-01T09:48:34.932Z,74.57
2018-04-01T09:51:02.768Z,74.80
2018-04-01T09:53:30.602Z,74.04
2018-04-01T09:55:58.455Z,73.73
2018-04-01T09:58:26.662Z,73.76
2018-04-01T10:01:00.941Z,73.63
2018-04-01T10:03:29.266Z,74.15
2018-04-01T10:05:57.588Z,74.01
2018-04-01T10:08:25.960Z,73.61
2018-04-01T10:10:54.288Z,73.96
2018-04-01T10:13:22.649Z,73.77
2018-04-01T10:15:51.017Z,73.49
2018-04-01T10:18:19.361Z,73.75
2018-04-01T10:20:47.668Z,73.85
2018-04-01T10:23:16.063Z,73.82
2018-04-01T10:25:44.482Z,74.02
2018-04-01T10:28:12.870Z,74.04
2018-04-01T10:30:41.227Z,73.38
2018-04-01T10:33:09.566Z,73.15
2018-04-01T10:35:37.920Z,73.20
2018-04-01T10:38:06.376Z,72.64
2018-04-01T10:40:34.729Z,72.65
2018-04-01T10:43:03.050Z,73.23
2018-04-01T10:45:31.398Z,72.51
2018-04-01T10:47:59.746Z,72.93
2018-04-01T10:50:28.186Z,72.73
2018-04-01T10:52:56.597Z,72.48
2018-04-01T10:55:24.464Z,72.38
2018-04-01T10:57:52.235Z,72.54
2018-04-01T11:00:20.087Z,72.36
2018-04-01T11:02:47.901Z,71.90
2018-04-01T11:05:15.712Z,72.11
2018-04-01T11:07:43.508Z,72.41
2018-04-01T11:10:11.316Z,72.48
2018-04-01T11:12:39.125Z,72.16
2018-04-01T11:15:06.983Z,72.65
2018-04-01T11:17:35.123Z,73.38
2018-04-01T11:20:02.906Z,73.25
2018-04-01T11:22:30.712Z,73.61
2018-04-01T11:24:58.541Z,73.46
2018-04-01T11:27:26.378Z,73.46
2018-04-01T11:29:54.180Z,73.70
2018-04-01T11:32:21.984Z,73.40
2018-04-01T11:34:49.776Z,73.39
2018-04-01T11:37:17.582Z,72.98
2018-04-01T11:39:45.373Z,72.56
2018-04-01T11:42:13.166Z,71.94
2018-04-01T11:44:41.007Z,70.98
2018-04-01T11:47:08.854Z,70.43
2018-04-01T11:49:36.649Z,69.34
2018-04-01T11:52:04.421Z,69.66
2018-04-01T11:54:32.207Z,70.42
2018-04-01T11:56:59.996Z,69.64
2018-04-01T11:59:27.843Z,69.54
2018-04-01T12:01:55.669Z,69.58
2018-04-01T12:04:23.445Z,69.19
2018-04-01T12:06:51.265Z,69.89
2018-04-01T12:09:19.076Z,69.73
2018-04-01T12:11:46.864Z,69.19
2018-04-01T12:14:14.706Z,68.84
2018-04-01T12:16:42.484Z,67.55
2018-04-01T12:19:10.328Z,66.79
2018-04-01T12:21:38.148Z,66.65
2018-04-01T12:24:05.968Z,65.55
2018-04-01T12:26:33.746Z,66.07
2018-04-01T12:29:01.566Z,65.10
2018-04-01T12:31:31.143Z,64.58
2018-04-01T12:33:58.954Z,65.80
2018-04-01T12:36:26.750Z,65.87
2018-04-01T12:38:54.722Z,66.17
2018-04-01T12:41:22.485Z,67.26
2018-04-01T12:43:50.365Z,66.42
2018-04-01T12:46:18.244Z,66.94
2018-04-01T12:48:46.009Z,66.52
2018-04-01T12:51:13.812Z,66.30
2018-04-01T12:53:41.646Z,66.05
2018-04-01T12:56:09.447Z,66.54
2018-04-01T12:58:37.219Z,66.97
2018-04-01T13:01:05.064Z,66.59
2018-04-01T13:03:32.830Z,66.89
2018-04-01T13:06:00.699Z,66.75
2018-04-01T13:08:28.484Z,67.03
2018-04-01T13:10:56.275Z,67.35
2018-04-01T13:13:24.073Z,66.63
2018-04-01T13:15:51.851Z,67.07
2018-04-01T13:18:19.700Z,66.83
2018-04-01T13:20:47.588Z,66.22
2018-04-01T13:23:15.618Z,66.51
2018-04-01T13:25:43.408Z,67.00
2018-04-01T13:28:11.249Z,67.16
2018-04-01T13:33:31.372Z,68.08
2018-04-01T13:35:59.144Z,68.15
2018-04-01T13:38:26.928Z,68.04
2018-04-01T13:40:54.693Z,68.35
2018-04-01T13:43:22.489Z,68.28
2018-04-01T13:45:50.265Z,68.08
2018-04-01T13:48:18.136Z,68.62
2018-04-01T13:50:45.958Z,68.50
2018-04-01T13:53:13.764Z,68.58
2018-04-01T13:55:41.612Z,68.46
2018-04-01T13:58:09.415Z,68.26
2018-04-01T14:00:37.216Z,68.45
2018-04-01T14:03:05.014Z,68.72
2018-04-01T14:05:32.997Z,69.03
2018-04-01T14:08:00.764Z,69.18
2018-04-01T14:10:28.562Z,68.75
2018-04-01T14:12:56.335Z,68.71
2018-04-01T14:15:24.153Z,68.16
2018-04-01T14:17:51.933Z,69.06
2018-04-01T14:20:19.723Z,68.72
2018-04-01T14:22:47.488Z,68.69
2018-04-01T14:25:15.309Z,68.48
2018-04-01T14:27:43.129Z,66.49
2018-04-01T14:30:10.945Z,67.45
2018-04-01T14:32:38.746Z,66.95
2018-04-01T14:35:06.585Z,66.96
2018-04-01T14:37:34.456Z,66.95
2018-04-01T14:40:02.254Z,66.64
2018-04-01T14:42:30.050Z,66.34
2018-04-01T14:44:57.825Z,67.12
2018-04-01T14:47:25.623Z,67.52
2018-04-01T14:49:53.401Z,66.94
2018-04-01T14:52:21.208Z,66.97
2018-04-01T14:54:49.062Z,67.91
2018-04-01T14:57:16.913Z,68.36
2018-04-01T14:59:44.695Z,68.36
2018-04-01T15:02:12.561Z,68.27
2018-04-01T15:04:40.369Z,68.49
2018-04-01T15:07:08.170Z,68.59
2018-04-01T15:09:36.027Z,67.92
2018-04-01T15:12:03.803Z,68.08
2018-04-01T15:14:31.607Z,67.74
2018-04-01T15:16:59.397Z,67.90
2018-04-01T15:19:27.232Z,68.04
2018-04-01T15:21:55.033Z,68.20
2018-04-01T15:24:22.844Z,67.71
2018-04-01T15:26:50.624Z,67.69
2018-04-01T15:29:18.412Z,68.10
2018-04-01T15:31:46.196Z,68.71
2018-04-01T15:34:13.991Z,68.83
2018-04-01T15:36:41.929Z,68.82
2018-04-01T15:39:09.754Z,68.61
2018-04-01T15:41:37.612Z,68.87
2018-04-01T15:44:05.397Z,67.56
2018-04-01T15:46:33.188Z,66.91
2018-04-01T15:49:00.948Z,67.04
2018-04-01T15:51:28.842Z,67.81
2018-04-01T15:53:56.628Z,67.34
2018-04-01T15:56:24.503Z,68.22
2018-04-01T15:58:52.366Z,68.10
2018-04-01T16:01:20.482Z,68.28
2018-04-01T16:03:48.339Z,67.92
2018-04-01T16:06:16.134Z,67.82
2018-04-01T16:08:43.905Z,68.17
2018-04-01T16:11:11.786Z,68.75
2018-04-01T16:13:39.670Z,68.89
2018-04-01T16:16:07.475Z,68.99
2018-04-01T16:18:35.265Z,69.16
2018-04-01T16:21:03.064Z,69.29
2018-04-01T16:23:30.863Z,70.05
2018-04-01T16:25:58.637Z,70.30
2018-04-01T16:28:26.402Z,70.22
2018-04-01T16:30:54.278Z,70.45
2018-04-01T16:33:22.157Z,70.88
2018-04-01T16:35:49.955Z,70.95
2018-04-01T16:38:17.746Z,70.97
2018-04-01T16:40:45.807Z,70.89
2018-04-01T16:43:13.588Z,71.45
2018-04-01T16:45:41.469Z,71.53
2018-04-01T16:48:09.268Z,71.74
2018-04-01T16:50:37.060Z,71.42
2018-04-01T16:53:04.908Z,71.87
2018-04-01T16:55:32.668Z,71.79
2018-04-01T16:58:00.470Z,72.03
2018-04-01T17:00:28.258Z,71.99
2018-04-01T17:02:56.115Z,72.38
2018-04-01T17:05:23.978Z,72.44
2018-04-01T17:07:52.034Z,72.78
2018-04-01T17:10:19.832Z,72.88
2018-04-01T17:12:47.632Z,72.88
2018-04-01T17:15:15.467Z,73.35
2018-04-01T17:17:43.323Z,73.41
2018-04-01T17:20:11.110Z,73.53
2018-04-01T17:22:38.906Z,73.62
2018-04-01T17:25:06.679Z,73.78
2018-04-01T17:27:34.480Z,73.89
2018-04-01T17:30:02.257Z,74.19
2018-04-01T17:32:30.138Z,74.39
2018-04-01T17:34:57.917Z,74.95
2018-04-01T17:37:25.756Z,74.37
2018-04-01T17:39:53.569Z,74.60
2018-04-01T17:42:21.350Z,74.74
2018-04-01T17:44:49.153Z,75.02
2018-04-01T17:47:16.922Z,74.63
2018-04-01T17:49:44.781Z,74.86
2018-04-01T17:52:12.564Z,74.85
2018-04-01T17:54:40.411Z,75.41
2018-04-01T17:57:08.204Z,75.64
2018-04-01T17:59:35.994Z,75.84
2018-04-01T18:02:03.762Z,77.17
2018-04-01T18:04:31.555Z,77.46
2018-04-01T18:06:59.462Z,78.42
2018-04-01T18:09:27.279Z,78.84
2018-04-01T18:11:55.099Z,79.41
2018-04-01T18:14:22.904Z,79.86
2018-04-01T18:16:50.701Z,80.06
2018-04-01T18:19:18.494Z,80.42
2018-04-01T18:21:46.273Z,81.27
2018-04-01T18:24:14.143Z,81.55
2018-04-01T18:26:41.922Z,82.08
2018-04-01T18:29:09.716Z,82.95
2018-04-01T18:31:37.544Z,83.43
2018-04-01T18:34:05.341Z,84.03
2018-04-01T18:36:33.140Z,83.85
2018-04-01T18:39:01.000Z,84.04
2018-04-01T18:41:28.918Z,84.54
2018-04-01T18:43:56.860Z,84.27
2018-04-01T18:46:24.950Z,84.56
2018-04-01T18:48:52.757Z,84.89
2018-04-01T18:51:20.545Z,85.18
2018-04-01T18:53:48.410Z,85.68
2018-04-01T18:56:16.224Z,85.52
2018-04-01T18:58:43.983Z,85.46
2018-04-01T19:01:11.863Z,86.13
2018-04-01T19:03:39.639Z,86.39
2018-04-01T19:06:07.527Z,86.39
2018-04-01T19:08:35.423Z,86.15
2018-04-01T19:11:03.232Z,86.64
2018-04-01T19:13:31.004Z,86.70
2018-04-01T19:15:59.348Z,86.88
2018-04-01T19:18:27.732Z,87.29
2018-04-01T19:20:56.111Z,87.57
2018-04-01T19:23:24.438Z,87.94
2018-04-01T19:25:53.179Z,87.76
2018-04-01T19:28:22.349Z,88.07
2018-04-01T19:30:50.697Z,87.97
2018-04-01T19:33:19.065Z,88.18
2018-04-01T19:35:47.401Z,88.40
2018-04-01T19:38:15.751Z,88.19
2018-04-01T19:40:44.060Z,88.39
2018-04-01T19:43:12.406Z,88.59
2018-04-01T19:45:40.733Z,88.30
2018-04-01T19:48:09.142Z,88.70
2018-04-01T19:50:37.524Z,88.66
2018-04-01T19:53:05.938Z,88.35
2018-04-01T19:55:34.304Z,88.04
2018-04-01T19:58:02.635Z,88.06
2018-04-01T20:00:30.957Z,87.99
2018-04-01T20:02:59.296Z,87.65
2018-04-01T20:05:27.635Z,87.48
2018-04-01T20:07:55.952Z,87.38
2018-04-01T20:10:24.304Z,86.96
2018-04-01T20:12:52.623Z,86.91
2018-04-01T20:15:20.940Z,86.85
2018-04-01T20:17:49.343Z,86.11
2018-04-01T20:20:17.690Z,86.26
2018-04-01T20:22:46.021Z,85.96
2018-04-01T20:25:14.575Z,85.68
2018-04-01T20:27:42.955Z,85.10
2018-04-01T20:30:11.264Z,84.64
2018-04-01T20:32:39.594Z,83.75
2018-04-01T20:35:07.944Z,83.27
2018-04-01T20:37:36.246Z,83.39
2018-04-01T20:40:04.597Z,82.85
2018-04-01T20:42:32.926Z,83.11
2018-04-01T20:45:01.261Z,82.23
2018-04-01T20:47:29.638Z,81.61
2018-04-01T20:49:58.980Z,82.21
2018-04-01T20:52:27.484Z,81.16
2018-04-01T20:54:56.853Z,80.86
2018-04-01T20:57:25.212Z,80.72
2018-04-01T20:59:53.531Z,81.06
2018-04-01T21:02:21.889Z,80.26
2018-04-01T21:04:50.215Z,79.68
2018-04-01T21:07:18.620Z,79.80
2018-04-01T21:09:46.969Z,79.81
2018-04-01T21:12:15.341Z,79.60
2018-04-01T21:14:44.063Z,79.14
2018-04-01T21:17:12.454Z,78.32
2018-04-01T21:19:41.016Z,78.03
2018-04-01T21:22:09.489Z,78.10
2018-04-01T21:24:37.995Z,76.44
2018-04-01T21:27:06.832Z,74.49
2018-04-01T21:29:35.381Z,74.09
2018-04-01T21:32:03.857Z,74.85
2018-04-01T21:34:32.390Z,74.19
2018-04-01T21:37:00.732Z,73.79
2018-04-01T21:39:29.161Z,74.44
2018-04-01T21:41:57.604Z,74.27
2018-04-01T21:44:26.007Z,74.03
2018-04-01T21:46:54.464Z,73.91
2018-04-01T21:49:22.876Z,74.05
2018-04-01T21:51:51.279Z,73.62
2018-04-01T21:54:32.418Z,74.62
2018-04-01T21:57:00.746Z,73.50
2018-04-01T21:59:29.076Z,73.82
2018-04-01T22:01:57.422Z,74.28
2018-04-01T22:04:25.863Z,73.46
2018-04-01T22:06:54.274Z,73.58
2018-04-01T22:09:22.701Z,73.64
2018-04-01T22:11:51.151Z,74.30
2018-04-01T22:14:19.706Z,74.15
2018-04-01T22:16:50.134Z,74.23
2018-04-01T22:19:18.523Z,74.44
2018-04-01T22:21:46.988Z,74.60
2018-04-01T22:24:15.315Z,74.40
2018-04-01T22:26:43.789Z,74.50
2018-04-01T22:29:12.120Z,74.71
2018-04-01T22:31:40.447Z,74.11
2018-04-01T22:34:08.846Z,74.66
2018-04-01T22:36:37.172Z,74.02
2018-04-01T22:39:06.451Z,74.00
2018-04-01T22:41:34.832Z,73.82
2018-04-01T22:44:03.144Z,73.75
2018-04-01T22:46:31.516Z,73.87
2018-04-01T22:48:59.794Z,73.52
2018-04-01T22:51:28.189Z,73.81
2018-04-01T22:53:56.581Z,73.88
2018-04-01T22:56:24.981Z,74.03
2018-04-01T22:58:53.393Z,74.25
2018-04-01T23:01:21.768Z,73.90
2018-04-01T23:03:50.097Z,73.92
2018-04-01T23:06:18.511Z,73.77
2018-04-01T23:08:46.892Z,73.54
2018-04-01T23:11:15.221Z,73.73
2018-04-01T23:13:43.604Z,74.38
2018-04-01T23:16:11.996Z,74.36
2018-04-01T23:18:40.329Z,74.16
2018-04-01T23:21:08.654Z,73.92
2018-04-01T23:23:37.089Z,74.07
2018-04-01T23:26:05.418Z,74.53
2018-04-01T23:28:33.752Z,74.41
2018-04-01T23:31:02.069Z,74.60
2018-04-01T23:33:30.380Z,74.18
2018-04-01T23:35:58.762Z,74.37
2018-04-01T23:38:27.089Z,74.97
2018-04-01T23:40:55.469Z,74.98
2018-04-01T23:43:23.799Z,75.06
2018-04-01T23:45:52.106Z,74.74
2018-04-01T23:48:20.476Z,75.10
2018-04-01T23:50:48.978Z,75.15
2018-04-01T23:53:17.396Z,75.34
2018-04-01T23:55:45.769Z,75.74
2018-04-01T23:58:14.172Z,75.99
